EJU94AB LEBL-LIML
Flight info
| Callsign | EJU94AB |
|---|---|
| Flight time | 1h 18m |
| Altitude | 30000 |
| Route | AGENA DCT BODEQ DCT LUMAS DCT UNANA DCT STP DCT RAPED DCT PIGOS DCT EKSID DCT NOSTA DCT EGHIN DCT DORAV/N0332F180 M985 GEN |
| Aircraft | A320/M-SDE2E3FGHIJ1RWXYZ/LB1 |
Departure
| Time | 2026-05-06 15:14 |
|---|---|
| Airport | Josep Tarradellas Barcelona-El Prat Airport (LEBL) |
Arrival
| Time | 2026-05-06 16:33 |
|---|---|
| Airport | Milano Linate Airport (LIML) |
| Time | Latitude | Longitude | Altitude | Speed | Heading |
|---|---|---|---|---|---|
| 2026-05-06 14:46 | 41.30370 | 2.08314 | 22 ft | 0 kts | 306° |
| 2026-05-06 15:03 | 41.30357 | 2.08338 | 22 ft | 4 kts | 306° |
| 2026-05-06 15:04 | 41.30342 | 2.08366 | 20 ft | 2 kts | 305° |
| 2026-05-06 15:04 | 41.30329 | 2.08390 | 23 ft | 4 kts | 312° |
| 2026-05-06 15:04 | 41.30309 | 2.08411 | 20 ft | 4 kts | 347° |
| 2026-05-06 15:04 | 41.30291 | 2.08405 | 19 ft | 4 kts | 47° |
| 2026-05-06 15:05 | 41.30276 | 2.08376 | 18 ft | 4 kts | 66° |
| 2026-05-06 15:05 | 41.30271 | 2.08361 | 18 ft | 0 kts | 66° |
| 2026-05-06 15:07 | 41.30273 | 2.08366 | 18 ft | 3 kts | 65° |
| 2026-05-06 15:07 | 41.30284 | 2.08415 | 20 ft | 9 kts | 92° |
| 2026-05-06 15:07 | 41.30217 | 2.08480 | 18 ft | 13 kts | 160° |
| 2026-05-06 15:07 | 41.30156 | 2.08428 | 20 ft | 11 kts | 245° |
| 2026-05-06 15:08 | 41.30121 | 2.08328 | 21 ft | 13 kts | 246° |
| 2026-05-06 15:08 | 41.30059 | 2.08256 | 18 ft | 14 kts | 169° |
| 2026-05-06 15:08 | 41.29972 | 2.08306 | 20 ft | 12 kts | 156° |
| 2026-05-06 15:08 | 41.29904 | 2.08347 | 22 ft | 10 kts | 156° |
| 2026-05-06 15:09 | 41.29818 | 2.08398 | 20 ft | 18 kts | 156° |
| 2026-05-06 15:09 | 41.29687 | 2.08477 | 16 ft | 21 kts | 155° |
| 2026-05-06 15:09 | 41.29559 | 2.08555 | 16 ft | 19 kts | 153° |
| 2026-05-06 15:09 | 41.29434 | 2.08628 | 17 ft | 20 kts | 159° |
| 2026-05-06 15:10 | 41.29317 | 2.08699 | 20 ft | 17 kts | 156° |
| 2026-05-06 15:10 | 41.29206 | 2.08767 | 17 ft | 18 kts | 155° |
| 2026-05-06 15:10 | 41.29094 | 2.08833 | 16 ft | 17 kts | 154° |
| 2026-05-06 15:10 | 41.28981 | 2.08902 | 17 ft | 15 kts | 156° |
| 2026-05-06 15:11 | 41.28949 | 2.08975 | 17 ft | 9 kts | 79° |
| 2026-05-06 15:11 | 41.28971 | 2.09047 | 17 ft | 9 kts | 66° |
| 2026-05-06 15:11 | 41.29006 | 2.09148 | 17 ft | 17 kts | 66° |
| 2026-05-06 15:11 | 41.29064 | 2.09319 | 17 ft | 21 kts | 66° |
| 2026-05-06 15:12 | 41.29126 | 2.09498 | 17 ft | 21 kts | 65° |
| 2026-05-06 15:12 | 41.29187 | 2.09679 | 17 ft | 22 kts | 66° |
| 2026-05-06 15:12 | 41.29251 | 2.09859 | 17 ft | 21 kts | 66° |
| 2026-05-06 15:12 | 41.29310 | 2.10004 | 18 ft | 16 kts | 67° |
| 2026-05-06 15:13 | 41.29307 | 2.10139 | 15 ft | 16 kts | 103° |
| 2026-05-06 15:13 | 41.29265 | 2.10280 | 15 ft | 16 kts | 129° |
| 2026-05-06 15:13 | 41.29188 | 2.10228 | 17 ft | 15 kts | 245° |
| 2026-05-06 15:13 | 41.29121 | 2.10036 | 19 ft | 45 kts | 245° |
| 2026-05-06 15:14 | 41.28893 | 2.09369 | 18 ft | 110 kts | 245° |
| 2026-05-06 15:14 | 41.28503 | 2.08225 | 49 ft | 157 kts | 243° |
| 2026-05-06 15:14 | 41.27988 | 2.07010 | 755 ft | 148 kts | 221° |
| 2026-05-06 15:14 | 41.27067 | 2.06311 | 1227 ft | 165 kts | 197° |
| 2026-05-06 15:15 | 41.25906 | 2.05916 | 1662 ft | 181 kts | 193° |
| 2026-05-06 15:15 | 41.24613 | 2.05543 | 2082 ft | 198 kts | 195° |
| 2026-05-06 15:15 | 41.23225 | 2.05142 | 2534 ft | 210 kts | 195° |
| 2026-05-06 15:15 | 41.21764 | 2.04719 | 3033 ft | 219 kts | 195° |
| 2026-05-06 15:16 | 41.20228 | 2.04271 | 3553 ft | 233 kts | 195° |
| 2026-05-06 15:16 | 41.18683 | 2.03802 | 4546 ft | 225 kts | 196° |
| 2026-05-06 15:16 | 41.17220 | 2.03050 | 5161 ft | 232 kts | 224° |
| 2026-05-06 15:16 | 41.16404 | 2.01239 | 5783 ft | 234 kts | 263° |
| 2026-05-06 15:17 | 41.16662 | 1.99143 | 6550 ft | 236 kts | 301° |
| 2026-05-06 15:17 | 41.17698 | 1.97439 | 7348 ft | 239 kts | 312° |
| 2026-05-06 15:17 | 41.18855 | 1.95837 | 8149 ft | 242 kts | 313° |
| 2026-05-06 15:17 | 41.20020 | 1.94211 | 8957 ft | 245 kts | 311° |
| 2026-05-06 15:18 | 41.21174 | 1.92527 | 9771 ft | 248 kts | 310° |
| 2026-05-06 15:18 | 41.22333 | 1.90805 | 10495 ft | 252 kts | 314° |
| 2026-05-06 15:18 | 41.23759 | 1.89387 | 11062 ft | 266 kts | 327° |
| 2026-05-06 15:18 | 41.25413 | 1.88059 | 11323 ft | 289 kts | 327° |
| 2026-05-06 15:19 | 41.27340 | 1.86970 | 11549 ft | 316 kts | 346° |
| 2026-05-06 15:19 | 41.29594 | 1.87001 | 11991 ft | 335 kts | 12° |
| 2026-05-06 15:19 | 41.31719 | 1.88344 | 12643 ft | 346 kts | 37° |
| 2026-05-06 15:19 | 41.33240 | 1.90847 | 13334 ft | 355 kts | 64° |
| 2026-05-06 15:20 | 41.33892 | 1.94037 | 13950 ft | 361 kts | 81° |
| 2026-05-06 15:20 | 41.34271 | 1.97363 | 14538 ft | 366 kts | 82° |
| 2026-05-06 15:20 | 41.34522 | 2.00757 | 15143 ft | 370 kts | 90° |
| 2026-05-06 15:20 | 41.34298 | 2.04181 | 15719 ft | 374 kts | 102° |
| 2026-05-06 15:21 | 41.33605 | 2.07527 | 16293 ft | 377 kts | 112° |
| 2026-05-06 15:21 | 41.32498 | 2.10694 | 16848 ft | 380 kts | 121° |
| 2026-05-06 15:21 | 41.31263 | 2.13843 | 17372 ft | 387 kts | 121° |
| 2026-05-06 15:21 | 41.30013 | 2.17034 | 17939 ft | 391 kts | 121° |
| 2026-05-06 15:22 | 41.28747 | 2.20262 | 18466 ft | 396 kts | 122° |
| 2026-05-06 15:22 | 41.27471 | 2.23525 | 18978 ft | 400 kts | 122° |
| 2026-05-06 15:22 | 41.26201 | 2.26771 | 19485 ft | 403 kts | 122° |
| 2026-05-06 15:22 | 41.24899 | 2.30082 | 19995 ft | 406 kts | 123° |
| 2026-05-06 15:23 | 41.23564 | 2.33464 | 20509 ft | 409 kts | 123° |
| 2026-05-06 15:23 | 41.22233 | 2.36818 | 21015 ft | 412 kts | 123° |
| 2026-05-06 15:23 | 41.20888 | 2.40199 | 21509 ft | 415 kts | 123° |
| 2026-05-06 15:23 | 41.19536 | 2.43601 | 21993 ft | 418 kts | 123° |
| 2026-05-06 15:24 | 41.18193 | 2.46980 | 22458 ft | 421 kts | 123° |
| 2026-05-06 15:24 | 41.16821 | 2.50438 | 22958 ft | 424 kts | 123° |
| 2026-05-06 15:24 | 41.15518 | 2.53972 | 23413 ft | 432 kts | 117° |
| 2026-05-06 15:24 | 41.14611 | 2.57807 | 23803 ft | 441 kts | 107° |
| 2026-05-06 15:25 | 41.14163 | 2.61868 | 24174 ft | 447 kts | 99° |
| 2026-05-06 15:25 | 41.13836 | 2.65982 | 24550 ft | 450 kts | 99° |
| 2026-05-06 15:25 | 41.13725 | 2.70158 | 24900 ft | 457 kts | 90° |
| 2026-05-06 15:25 | 41.14149 | 2.74361 | 25257 ft | 463 kts | 79° |
| 2026-05-06 15:26 | 41.15118 | 2.78455 | 25607 ft | 468 kts | 68° |
| 2026-05-06 15:26 | 41.16616 | 2.82304 | 25953 ft | 471 kts | 56° |
| 2026-05-06 15:26 | 41.18543 | 2.85824 | 26290 ft | 473 kts | 51° |
| 2026-05-06 15:26 | 41.20551 | 2.89304 | 26633 ft | 476 kts | 51° |
| 2026-05-06 15:27 | 41.22570 | 2.92806 | 26972 ft | 479 kts | 51° |
| 2026-05-06 15:27 | 41.24598 | 2.96331 | 27305 ft | 482 kts | 51° |
| 2026-05-06 15:27 | 41.26640 | 2.99882 | 27638 ft | 485 kts | 51° |
| 2026-05-06 15:27 | 41.28691 | 3.03456 | 27965 ft | 487 kts | 51° |
| 2026-05-06 15:28 | 41.30749 | 3.07049 | 28308 ft | 490 kts | 51° |
| 2026-05-06 15:28 | 41.32819 | 3.10672 | 28622 ft | 493 kts | 51° |
| 2026-05-06 15:28 | 41.34899 | 3.14320 | 28940 ft | 496 kts | 52° |
| 2026-05-06 15:28 | 41.36990 | 3.17987 | 29254 ft | 499 kts | 52° |
| 2026-05-06 15:29 | 41.39089 | 3.21675 | 29573 ft | 501 kts | 52° |
| 2026-05-06 15:29 | 41.41203 | 3.25391 | 29879 ft | 504 kts | 52° |
| 2026-05-06 15:29 | 41.43321 | 3.29118 | 30148 ft | 506 kts | 52° |
| 2026-05-06 15:29 | 41.45450 | 3.32871 | 30403 ft | 509 kts | 52° |
| 2026-05-06 15:30 | 41.47586 | 3.36640 | 30659 ft | 510 kts | 52° |
| 2026-05-06 15:30 | 41.49728 | 3.40425 | 30911 ft | 512 kts | 52° |
| 2026-05-06 15:30 | 41.51845 | 3.44256 | 31201 ft | 514 kts | 56° |
| 2026-05-06 15:30 | 41.53623 | 3.48387 | 31555 ft | 513 kts | 65° |
| 2026-05-06 15:31 | 41.54963 | 3.52779 | 31934 ft | 510 kts | 73° |
| 2026-05-06 15:31 | 41.55870 | 3.57339 | 32272 ft | 507 kts | 80° |
| 2026-05-06 15:31 | 41.56630 | 3.61936 | 32612 ft | 507 kts | 80° |
| 2026-05-06 15:32 | 41.58146 | 3.71119 | 33284 ft | 506 kts | 80° |
| 2026-05-06 15:32 | 41.58892 | 3.75706 | 33630 ft | 505 kts | 80° |
| 2026-05-06 15:32 | 41.59632 | 3.80290 | 33901 ft | 505 kts | 80° |
| 2026-05-06 15:32 | 41.60370 | 3.84870 | 33944 ft | 501 kts | 81° |
| 2026-05-06 15:33 | 41.61830 | 3.93877 | 33958 ft | 493 kts | 80° |
| 2026-05-06 15:33 | 41.63279 | 4.02821 | 33958 ft | 492 kts | 81° |
| 2026-05-06 15:34 | 41.64713 | 4.11759 | 33961 ft | 492 kts | 81° |
| 2026-05-06 15:34 | 41.66133 | 4.20707 | 33935 ft | 492 kts | 81° |
| 2026-05-06 15:35 | 41.67550 | 4.29640 | 33944 ft | 491 kts | 81° |
| 2026-05-06 15:35 | 41.68960 | 4.38570 | 33947 ft | 490 kts | 81° |
| 2026-05-06 15:36 | 41.70363 | 4.47495 | 33975 ft | 490 kts | 81° |
| 2026-05-06 15:36 | 41.71751 | 4.56415 | 33964 ft | 490 kts | 81° |
| 2026-05-06 15:37 | 41.73875 | 4.65087 | 33936 ft | 494 kts | 64° |
| 2026-05-06 15:37 | 41.75645 | 4.69033 | 33939 ft | 494 kts | 53° |
| 2026-05-06 15:37 | 41.77832 | 4.72567 | 33939 ft | 493 kts | 44° |
| 2026-05-06 15:38 | 41.82717 | 4.78998 | 33940 ft | 493 kts | 43° |
| 2026-05-06 15:38 | 41.87594 | 4.85466 | 33937 ft | 493 kts | 43° |
| 2026-05-06 15:39 | 41.92468 | 4.91948 | 33951 ft | 494 kts | 43° |
| 2026-05-06 15:39 | 41.97349 | 4.98441 | 33923 ft | 494 kts | 43° |
| 2026-05-06 15:40 | 42.02231 | 5.04943 | 33929 ft | 494 kts | 43° |
| 2026-05-06 15:40 | 42.07078 | 5.11413 | 33933 ft | 494 kts | 43° |
| 2026-05-06 15:41 | 42.11314 | 5.17071 | 33957 ft | 495 kts | 44° |
| 2026-05-06 15:41 | 42.15843 | 5.23146 | 33943 ft | 495 kts | 44° |
| 2026-05-06 15:42 | 42.20719 | 5.29702 | 33935 ft | 495 kts | 44° |
| 2026-05-06 15:42 | 42.25599 | 5.36277 | 33908 ft | 496 kts | 44° |
| 2026-05-06 15:43 | 42.30484 | 5.42858 | 33935 ft | 496 kts | 44° |
| 2026-05-06 15:43 | 42.35364 | 5.49459 | 33928 ft | 497 kts | 44° |
| 2026-05-06 15:44 | 42.40210 | 5.56041 | 33924 ft | 497 kts | 44° |
| 2026-05-06 15:44 | 42.45088 | 5.62676 | 33924 ft | 497 kts | 44° |
| 2026-05-06 15:45 | 42.49967 | 5.69314 | 33945 ft | 497 kts | 44° |
| 2026-05-06 15:45 | 42.54842 | 5.75963 | 33913 ft | 497 kts | 45° |
| 2026-05-06 15:46 | 42.59712 | 5.82632 | 33911 ft | 497 kts | 45° |
| 2026-05-06 15:46 | 42.62142 | 5.85968 | 33318 ft | 497 kts | 45° |
| 2026-05-06 15:46 | 42.64547 | 5.89274 | 33960 ft | 489 kts | 45° |
| 2026-05-06 15:47 | 42.68554 | 5.94787 | 33930 ft | 496 kts | 45° |
| 2026-05-06 15:47 | 42.73415 | 6.01483 | 33928 ft | 498 kts | 45° |
| 2026-05-06 15:48 | 42.78279 | 6.08201 | 33928 ft | 498 kts | 45° |
| 2026-05-06 15:48 | 42.83136 | 6.14932 | 33923 ft | 498 kts | 45° |
| 2026-05-06 15:49 | 42.88222 | 6.21298 | 33938 ft | 497 kts | 38° |
| 2026-05-06 15:49 | 42.93519 | 6.27355 | 33915 ft | 497 kts | 39° |
| 2026-05-06 15:50 | 42.98807 | 6.33425 | 33907 ft | 497 kts | 39° |
| 2026-05-06 15:50 | 43.04092 | 6.39511 | 33900 ft | 497 kts | 39° |
| 2026-05-06 15:51 | 43.09326 | 6.45541 | 33907 ft | 497 kts | 39° |
| 2026-05-06 15:51 | 43.11989 | 6.48610 | 34011 ft | 484 kts | 40° |
| 2026-05-06 15:51 | 43.14542 | 6.51563 | 33883 ft | 483 kts | 39° |
| 2026-05-06 15:52 | 43.19748 | 6.57612 | 33888 ft | 496 kts | 40° |
| 2026-05-06 15:52 | 43.24338 | 6.64682 | 33901 ft | 498 kts | 56° |
| 2026-05-06 15:53 | 43.28390 | 6.72396 | 33870 ft | 499 kts | 55° |
| 2026-05-06 15:53 | 43.32470 | 6.80110 | 33857 ft | 499 kts | 55° |
| 2026-05-06 15:54 | 43.36547 | 6.87828 | 33816 ft | 499 kts | 55° |
| 2026-05-06 15:54 | 43.40609 | 6.95548 | 33821 ft | 498 kts | 56° |
| 2026-05-06 15:55 | 43.44652 | 7.03284 | 33846 ft | 499 kts | 56° |
| 2026-05-06 15:55 | 43.48701 | 7.11042 | 33833 ft | 499 kts | 56° |
| 2026-05-06 15:56 | 43.52750 | 7.18805 | 33828 ft | 499 kts | 56° |
| 2026-05-06 15:56 | 43.56785 | 7.26581 | 33823 ft | 499 kts | 56° |
| 2026-05-06 15:57 | 43.60818 | 7.34383 | 33850 ft | 499 kts | 56° |
| 2026-05-06 15:57 | 43.64847 | 7.42185 | 33836 ft | 499 kts | 56° |
| 2026-05-06 15:58 | 43.68877 | 7.49998 | 33826 ft | 499 kts | 56° |
| 2026-05-06 15:58 | 43.72897 | 7.57827 | 33822 ft | 499 kts | 56° |
| 2026-05-06 15:59 | 43.76913 | 7.65655 | 33818 ft | 499 kts | 56° |
| 2026-05-06 15:59 | 43.80920 | 7.73508 | 33836 ft | 499 kts | 56° |
| 2026-05-06 16:00 | 43.84917 | 7.81347 | 33834 ft | 498 kts | 56° |
| 2026-05-06 16:00 | 43.88922 | 7.89175 | 33827 ft | 498 kts | 56° |
| 2026-05-06 16:01 | 43.92917 | 7.97007 | 33805 ft | 497 kts | 57° |
| 2026-05-06 16:01 | 43.96865 | 8.04784 | 33598 ft | 493 kts | 57° |
| 2026-05-06 16:02 | 43.98848 | 8.08701 | 33175 ft | 486 kts | 57° |
| 2026-05-06 16:02 | 44.00782 | 8.12523 | 32665 ft | 482 kts | 57° |
| 2026-05-06 16:02 | 44.02676 | 8.16272 | 32209 ft | 479 kts | 57° |
| 2026-05-06 16:02 | 44.04578 | 8.20048 | 31662 ft | 475 kts | 57° |
| 2026-05-06 16:03 | 44.06439 | 8.23822 | 31195 ft | 472 kts | 59° |
| 2026-05-06 16:03 | 44.08195 | 8.27653 | 30735 ft | 468 kts | 62° |
| 2026-05-06 16:03 | 44.09860 | 8.31519 | 30267 ft | 464 kts | 63° |
| 2026-05-06 16:03 | 44.11474 | 8.35398 | 29784 ft | 462 kts | 64° |
| 2026-05-06 16:04 | 44.13072 | 8.39267 | 29215 ft | 461 kts | 64° |
| 2026-05-06 16:04 | 44.14677 | 8.43117 | 28693 ft | 459 kts | 62° |
| 2026-05-06 16:04 | 44.16586 | 8.46657 | 28184 ft | 458 kts | 45° |
| 2026-05-06 16:04 | 44.19058 | 8.49395 | 27751 ft | 452 kts | 28° |
| 2026-05-06 16:05 | 44.21786 | 8.51525 | 27268 ft | 448 kts | 26° |
| 2026-05-06 16:05 | 44.24508 | 8.53601 | 26813 ft | 445 kts | 26° |
| 2026-05-06 16:05 | 44.27212 | 8.55651 | 26382 ft | 441 kts | 25° |
| 2026-05-06 16:05 | 44.29899 | 8.57691 | 26014 ft | 437 kts | 25° |
| 2026-05-06 16:06 | 44.32560 | 8.59719 | 25589 ft | 434 kts | 25° |
| 2026-05-06 16:06 | 44.35197 | 8.61734 | 25182 ft | 431 kts | 25° |
| 2026-05-06 16:06 | 44.37818 | 8.63744 | 24778 ft | 427 kts | 25° |
| 2026-05-06 16:06 | 44.40413 | 8.65737 | 24389 ft | 424 kts | 25° |
| 2026-05-06 16:07 | 44.42991 | 8.67717 | 24015 ft | 421 kts | 25° |
| 2026-05-06 16:07 | 44.45546 | 8.69679 | 23606 ft | 416 kts | 25° |
| 2026-05-06 16:07 | 44.48078 | 8.71622 | 23164 ft | 413 kts | 25° |
| 2026-05-06 16:07 | 44.50588 | 8.73548 | 22675 ft | 410 kts | 26° |
| 2026-05-06 16:08 | 44.53077 | 8.75462 | 22294 ft | 406 kts | 25° |
| 2026-05-06 16:08 | 44.55542 | 8.77364 | 21906 ft | 403 kts | 25° |
| 2026-05-06 16:08 | 44.57957 | 8.79228 | 21538 ft | 400 kts | 25° |
| 2026-05-06 16:08 | 44.60383 | 8.81101 | 21156 ft | 397 kts | 25° |
| 2026-05-06 16:09 | 44.62792 | 8.82964 | 20745 ft | 394 kts | 25° |
| 2026-05-06 16:09 | 44.65178 | 8.84819 | 20380 ft | 390 kts | 25° |
| 2026-05-06 16:09 | 44.67535 | 8.86651 | 20047 ft | 386 kts | 25° |
| 2026-05-06 16:09 | 44.69880 | 8.88469 | 19832 ft | 383 kts | 25° |
| 2026-05-06 16:10 | 44.72216 | 8.90277 | 19846 ft | 384 kts | 25° |
| 2026-05-06 16:10 | 44.74556 | 8.92089 | 19840 ft | 384 kts | 25° |
| 2026-05-06 16:10 | 44.76894 | 8.93900 | 19833 ft | 384 kts | 25° |
| 2026-05-06 16:10 | 44.79237 | 8.95715 | 19832 ft | 384 kts | 25° |
| 2026-05-06 16:11 | 44.81571 | 8.97532 | 19830 ft | 384 kts | 25° |
| 2026-05-06 16:11 | 44.83899 | 8.99351 | 19557 ft | 379 kts | 26° |
| 2026-05-06 16:11 | 44.86177 | 9.01133 | 18811 ft | 375 kts | 27° |
| 2026-05-06 16:11 | 44.88427 | 9.02894 | 18389 ft | 367 kts | 26° |
| 2026-05-06 16:12 | 44.90646 | 9.04634 | 17740 ft | 363 kts | 26° |
| 2026-05-06 16:12 | 44.92839 | 9.06355 | 17122 ft | 358 kts | 26° |
| 2026-05-06 16:12 | 44.95001 | 9.08050 | 16492 ft | 353 kts | 26° |
| 2026-05-06 16:12 | 44.97134 | 9.09722 | 15923 ft | 348 kts | 27° |
| 2026-05-06 16:13 | 44.99216 | 9.11426 | 15323 ft | 345 kts | 35° |
| 2026-05-06 16:13 | 45.00862 | 9.13839 | 14752 ft | 340 kts | 59° |
| 2026-05-06 16:13 | 45.01825 | 9.16846 | 14187 ft | 334 kts | 72° |
| 2026-05-06 16:13 | 45.02583 | 9.19927 | 13644 ft | 330 kts | 73° |
| 2026-05-06 16:14 | 45.03315 | 9.22986 | 13049 ft | 326 kts | 73° |
| 2026-05-06 16:14 | 45.04037 | 9.26005 | 12417 ft | 322 kts | 73° |
| 2026-05-06 16:14 | 45.04743 | 9.28993 | 11811 ft | 319 kts | 73° |
| 2026-05-06 16:14 | 45.05437 | 9.31958 | 11224 ft | 316 kts | 73° |
| 2026-05-06 16:15 | 45.06119 | 9.34891 | 10637 ft | 312 kts | 73° |
| 2026-05-06 16:15 | 45.06787 | 9.37785 | 10072 ft | 308 kts | 73° |
| 2026-05-06 16:15 | 45.07660 | 9.40515 | 9515 ft | 304 kts | 53° |
| 2026-05-06 16:15 | 45.09178 | 9.42413 | 9106 ft | 292 kts | 26° |
| 2026-05-06 16:16 | 45.11077 | 9.43180 | 8591 ft | 281 kts | 358° |
| 2026-05-06 16:16 | 45.12900 | 9.42620 | 8084 ft | 267 kts | 327° |
| 2026-05-06 16:16 | 45.14473 | 9.41184 | 7568 ft | 260 kts | 322° |
| 2026-05-06 16:16 | 45.15955 | 9.39756 | 7059 ft | 256 kts | 322° |
| 2026-05-06 16:17 | 45.17415 | 9.38347 | 6574 ft | 252 kts | 322° |
| 2026-05-06 16:17 | 45.18856 | 9.36954 | 6080 ft | 250 kts | 322° |
| 2026-05-06 16:17 | 45.20293 | 9.35562 | 5570 ft | 252 kts | 323° |
| 2026-05-06 16:17 | 45.21755 | 9.34149 | 5020 ft | 257 kts | 323° |
| 2026-05-06 16:18 | 45.23258 | 9.32695 | 4341 ft | 263 kts | 324° |
| 2026-05-06 16:18 | 45.24747 | 9.31257 | 3959 ft | 254 kts | 324° |
| 2026-05-06 16:18 | 45.26199 | 9.30008 | 3660 ft | 242 kts | 338° |
| 2026-05-06 16:18 | 45.27826 | 9.29484 | 3369 ft | 234 kts | 352° |
| 2026-05-06 16:19 | 45.29429 | 9.29306 | 3078 ft | 228 kts | 355° |
| 2026-05-06 16:19 | 45.30993 | 9.29156 | 2765 ft | 223 kts | 354° |
| 2026-05-06 16:19 | 45.32520 | 9.28997 | 2475 ft | 216 kts | 355° |
| 2026-05-06 16:19 | 45.33980 | 9.28840 | 2223 ft | 204 kts | 355° |
| 2026-05-06 16:20 | 45.35364 | 9.28691 | 1933 ft | 194 kts | 354° |
| 2026-05-06 16:20 | 45.36668 | 9.28551 | 1701 ft | 182 kts | 355° |
| 2026-05-06 16:20 | 45.37848 | 9.28422 | 1497 ft | 167 kts | 355° |
| 2026-05-06 16:20 | 45.38974 | 9.28309 | 1237 ft | 157 kts | 354° |
| 2026-05-06 16:21 | 45.40026 | 9.28195 | 1043 ft | 146 kts | 357° |
| 2026-05-06 16:21 | 45.41015 | 9.28087 | 851 ft | 138 kts | 356° |
| 2026-05-06 16:21 | 45.41952 | 9.27982 | 678 ft | 133 kts | 359° |
| 2026-05-06 16:21 | 45.42889 | 9.27885 | 520 ft | 133 kts | 356° |
| 2026-05-06 16:22 | 45.43807 | 9.27782 | 375 ft | 130 kts | 355° |
| 2026-05-06 16:22 | 45.44630 | 9.27698 | 371 ft | 113 kts | 355° |
| 2026-05-06 16:22 | 45.45499 | 9.27631 | 765 ft | 139 kts | 357° |
| 2026-05-06 16:22 | 45.46501 | 9.27548 | 1437 ft | 154 kts | 356° |
| 2026-05-06 16:23 | 45.47624 | 9.27396 | 1991 ft | 169 kts | 357° |
| 2026-05-06 16:23 | 45.48826 | 9.27225 | 2440 ft | 183 kts | 355° |
| 2026-05-06 16:23 | 45.50189 | 9.27065 | 2732 ft | 206 kts | 356° |
| 2026-05-06 16:23 | 45.51634 | 9.27483 | 2930 ft | 227 kts | 33° |
| 2026-05-06 16:24 | 45.52626 | 9.29186 | 3001 ft | 226 kts | 76° |
| 2026-05-06 16:24 | 45.52590 | 9.31350 | 3007 ft | 221 kts | 118° |
| 2026-05-06 16:24 | 45.51648 | 9.33009 | 3009 ft | 216 kts | 140° |
| 2026-05-06 16:24 | 45.50495 | 9.34379 | 3003 ft | 216 kts | 154° |
| 2026-05-06 16:25 | 45.49076 | 9.35008 | 3003 ft | 215 kts | 171° |
| 2026-05-06 16:25 | 45.47589 | 9.35329 | 3006 ft | 216 kts | 175° |
| 2026-05-06 16:25 | 45.46103 | 9.35501 | 3007 ft | 213 kts | 178° |
| 2026-05-06 16:25 | 45.44626 | 9.35632 | 2999 ft | 214 kts | 177° |
| 2026-05-06 16:26 | 45.43128 | 9.35719 | 3003 ft | 216 kts | 178° |
| 2026-05-06 16:26 | 45.41621 | 9.35793 | 3003 ft | 217 kts | 178° |
| 2026-05-06 16:26 | 45.40108 | 9.35867 | 3004 ft | 219 kts | 178° |
| 2026-05-06 16:26 | 45.38585 | 9.35941 | 3004 ft | 219 kts | 178° |
| 2026-05-06 16:27 | 45.37058 | 9.36030 | 3008 ft | 220 kts | 178° |
| 2026-05-06 16:27 | 45.35531 | 9.36131 | 3005 ft | 219 kts | 178° |
| 2026-05-06 16:27 | 45.34012 | 9.36236 | 3006 ft | 219 kts | 178° |
| 2026-05-06 16:27 | 45.32486 | 9.36336 | 3005 ft | 219 kts | 178° |
| 2026-05-06 16:28 | 45.30962 | 9.36403 | 3000 ft | 220 kts | 185° |
| 2026-05-06 16:28 | 45.29543 | 9.35692 | 2998 ft | 219 kts | 218° |
| 2026-05-06 16:28 | 45.28651 | 9.33979 | 2998 ft | 218 kts | 252° |
| 2026-05-06 16:28 | 45.28584 | 9.31919 | 2996 ft | 206 kts | 285° |
| 2026-05-06 16:29 | 45.29265 | 9.30220 | 2987 ft | 193 kts | 315° |
| 2026-05-06 16:29 | 45.30403 | 9.29284 | 2829 ft | 190 kts | 344° |
| 2026-05-06 16:29 | 45.31710 | 9.29073 | 2620 ft | 188 kts | 355° |
| 2026-05-06 16:29 | 45.32991 | 9.28942 | 2383 ft | 181 kts | 355° |
| 2026-05-06 16:30 | 45.34209 | 9.28814 | 2177 ft | 168 kts | 355° |
| 2026-05-06 16:30 | 45.34598 | 9.28772 | 2095 ft | 165 kts | 355° |
| 2026-05-06 16:30 | 45.36427 | 9.28572 | 1692 ft | 156 kts | 356° |
| 2026-05-06 16:30 | 45.37500 | 9.28461 | 1528 ft | 155 kts | 356° |
| 2026-05-06 16:31 | 45.38555 | 9.28350 | 1296 ft | 152 kts | 355° |
| 2026-05-06 16:31 | 45.39602 | 9.28236 | 1109 ft | 148 kts | 355° |
| 2026-05-06 16:31 | 45.40599 | 9.28123 | 938 ft | 139 kts | 358° |
| 2026-05-06 16:31 | 45.41546 | 9.28022 | 717 ft | 137 kts | 4° |
| 2026-05-06 16:32 | 45.42482 | 9.27924 | 592 ft | 134 kts | 358° |
| 2026-05-06 16:32 | 45.43405 | 9.27824 | 414 ft | 132 kts | 358° |
| 2026-05-06 16:32 | 45.44274 | 9.27733 | 364 ft | 112 kts | 357° |
| 2026-05-06 16:32 | 45.44683 | 9.27689 | 363 ft | 61 kts | 355° |
| 2026-05-06 16:33 | 45.45023 | 9.27652 | 364 ft | 44 kts | 355° |
| 2026-05-06 16:33 | 45.45288 | 9.27648 | 358 ft | 32 kts | 15° |
| 2026-05-06 16:33 | 45.45434 | 9.27752 | 361 ft | 16 kts | 54° |
| 2026-05-06 16:34 | 45.45647 | 9.27817 | 362 ft | 17 kts | 0° |
| 2026-05-06 16:34 | 45.45691 | 9.27855 | 363 ft | 6 kts | 84° |
| 2026-05-06 16:34 | 45.45691 | 9.27893 | 360 ft | 2 kts | 90° |
| 2026-05-06 16:34 | 45.45691 | 9.27894 | 360 ft | 0 kts | 90° |